Guemes, Washington
Current Conditions -  °F | °C
As of 10:56 AM on Thursday 23 Oct 2014 (Local Time) from KNUW Reporting Station
Broken Clouds Broken Clouds  
Wind Chill: 56°   Ceiling: 1600
Heat Index: 56°   Visibility: 10mi
Dew Point: 50°   Wind: 16mph
Humidity: 80%   Direction: 160°SSE
Pressure: 29.73"   Gusts: NA
Location:  48.4652°N, 122.617°W
Report Text: KNUW 231756Z 16014KT 10SM SCT013 BKN016 BKN022 BKN180 13/10 A2973 RMK AO2 RAE09 SLP069 P0000 60016 T01330100 10139 20122 51010
Loading
Personal Weather Stations






























Interactive Weather Map
Tropical Storm Tracking
New forecast layout! Learn more

10-Day Weather Forecast

Advertisements
Track Severe Weather on mobile